Time;durP1;ratioP1;P1;durP2;ratioP2;P2;SDS_P1;SDS_P2;PMS_P1;PMS_P2;Temp;Humidity;BMP_temperature;BMP_pressure;BME280_temperature;BME280_humidity;BME280_pressure;Samples;Min_cycle;Max_cycle;Signal;HPM_P1;HPM_P2
2022/02/07 00:00:35;;;;;;;13.07;4.13;;;;;;;4.44;74.10;96602.78;5095296;28;20027;-65
2022/02/07 00:03:14;;;;;;;10.70;3.60;;;;;;;4.47;74.22;96600.25;5113679;28;20058;-65
2022/02/07 00:05:40;;;;;;;8.43;3.10;;;;;;;4.52;73.93;96596.63;5118466;27;20077;-64
2022/02/07 00:08:08;;;;;;;6.75;3.47;;;;;;;4.54;73.30;96602.53;5121294;27;20015;-64
2022/02/07 00:10:36;;;;;;;6.50;2.72;;;;;;;4.56;73.27;96604.97;5129740;27;20130;-65
2022/02/07 00:13:01;;;;;;;7.72;2.75;;;;;;;4.58;73.04;96597.34;5124666;27;20028;-66
2022/02/07 00:15:27;;;;;;;7.72;2.92;;;;;;;4.59;73.63;96598.94;5120896;27;20023;-66
2022/02/07 00:17:52;;;;;;;7.00;3.08;;;;;;;4.61;73.08;96605.66;5122369;27;20019;-65
2022/02/07 00:20:20;;;;;;;7.43;2.80;;;;;;;4.61;73.29;96600.22;5122158;27;20019;-66
2022/02/07 00:22:48;;;;;;;13.10;4.30;;;;;;;4.64;73.15;96609.69;5102227;27;20034;-65
2022/02/07 00:25:14;;;;;;;8.85;3.45;;;;;;;4.66;73.45;96595.81;5122069;27;20018;-66
2022/02/07 00:27:40;;;;;;;5.78;2.40;;;;;;;4.67;72.66;96600.94;5122483;27;20016;-66
2022/02/07 00:30:09;;;;;;;11.07;3.83;;;;;;;4.70;72.87;96596.81;5119658;27;20022;-66
2022/02/07 00:32:35;;;;;;;8.52;2.97;;;;;;;4.69;73.03;96596.00;5103384;27;21451;-66
2022/02/07 00:35:01;;;;;;;5.78;2.35;;;;;;;4.70;72.83;96600.31;5122340;27;20028;-66
2022/02/07 00:37:29;;;;;;;17.23;5.28;;;;;;;4.70;72.74;96605.75;5120403;27;20042;-66
2022/02/07 00:40:16;;;;;;;7.40;3.15;;;;;;;4.71;72.54;96607.34;5121442;27;20060;-66
2022/02/07 00:43:12;;;;;;;7.65;2.60;;;;;;;4.72;72.77;96602.75;5122386;27;20048;-66
2022/02/07 00:48:04;;;;;;;7.15;2.13;;;;;;;4.70;73.02;96605.75;5120261;27;20032;-65
2022/02/07 00:50:31;;;;;;;4.70;1.77;;;;;;;4.70;72.86;96605.75;5103728;27;20413;-66
2022/02/07 00:52:57;;;;;;;6.43;2.50;;;;;;;4.70;72.10;96611.19;5103206;27;20019;-66
2022/02/07 00:55:22;;;;;;;7.68;3.40;;;;;;;4.69;72.77;96614.22;5120366;27;21434;-66
2022/02/07 00:57:48;;;;;;;6.13;2.40;;;;;;;4.69;72.58;96601.41;5122242;27;20011;-66
2022/02/07 01:00:15;;;;;;;4.72;2.17;;;;;;;4.71;72.47;96601.13;5102360;27;20476;-66
2022/02/07 01:02:40;;;;;;;5.22;2.42;;;;;;;4.71;72.54;96601.13;5102622;27;20019;-66
2022/02/07 01:05:07;;;;;;;3.28;1.80;;;;;;;4.72;72.04;96584.53;5122246;27;20011;-66
2022/02/07 01:07:32;;;;;;;4.80;1.70;;;;;;;4.71;72.16;96577.47;5102914;27;20022;-66
2022/02/07 01:09:58;;;;;;;4.03;2.05;;;;;;;4.69;72.42;96579.69;5121168;27;20031;-66
2022/02/07 01:48:17;;;;;;;3.50;1.80;;;;;;;4.57;72.06;96519.72;5125489;27;20081;-65
2022/02/07 01:55:51;;;;;;;3.80;2.72;;;;;;;4.43;72.43;96506.16;5124208;27;20032;-66
2022/02/07 01:58:17;;;;;;;3.17;1.90;;;;;;;4.41;72.58;96505.66;5125316;27;20102;-66
2022/02/07 02:00:43;;;;;;;2.92;1.70;;;;;;;4.35;72.67;96510.38;5126146;27;20107;-66
2022/02/07 02:03:09;;;;;;;3.55;2.60;;;;;;;4.30;73.30;96503.16;5123913;27;20038;-66
2022/02/07 02:05:39;;;;;;;2.70;1.88;;;;;;;4.27;73.71;96506.47;5124801;27;20069;-66
2022/02/07 02:08:08;;;;;;;4.28;1.80;;;;;;;4.22;74.00;96513.94;5116607;27;20502;-66
2022/02/07 02:10:35;;;;;;;2.47;1.80;;;;;;;4.15;73.64;96508.88;5116239;27;20023;-67
2022/02/07 02:13:12;;;;;;;3.80;2.35;;;;;;;4.09;74.81;96497.34;5116462;27;20031;-67
2022/02/07 02:47:43;;;;;;;2.17;1.52;;;;;;;3.91;75.21;96530.78;5125315;27;20035;-67
2022/02/07 02:50:27;;;;;;;2.00;1.33;;;;;;;3.88;75.24;96530.28;5119515;27;20027;-66
2022/02/07 02:52:53;;;;;;;3.00;1.42;;;;;;;3.90;74.83;96524.56;5122715;27;20051;-67
2022/02/07 02:55:18;;;;;;;2.25;1.52;;;;;;;3.95;74.99;96527.19;5123976;27;20432;-66
2022/02/07 02:57:44;;;;;;;3.35;1.80;;;;;;;3.97;74.60;96524.16;5106573;27;20118;-67
2022/02/07 03:00:10;;;;;;;3.47;1.90;;;;;;;3.98;75.55;96517.63;5123119;27;20426;-67
2022/02/07 03:02:35;;;;;;;3.78;1.90;;;;;;;3.98;75.29;96504.06;5124022;27;20023;-67
2022/02/07 03:05:01;;;;;;;2.53;1.70;;;;;;;3.99;75.20;96502.97;5124520;27;20106;-66
2022/02/07 03:07:26;;;;;;;4.18;1.98;;;;;;;4.01;75.03;96490.72;5122823;27;20064;-67
2022/02/07 03:09:54;;;;;;;3.35;1.85;;;;;;;4.02;74.77;96489.63;5124904;27;20029;-66
2022/02/07 03:12:19;;;;;;;3.70;1.80;;;;;;;4.04;74.70;96497.44;5124322;27;20018;-67
2022/02/07 03:14:47;;;;;;;3.40;1.80;;;;;;;4.05;75.16;96499.06;5104425;27;20028;-67
2022/02/07 03:17:13;;;;;;;3.45;2.08;;;;;;;4.06;74.64;96499.88;5124460;27;20015;-67
2022/02/07 03:19:39;;;;;;;5.20;2.92;;;;;;;4.02;74.84;96516.75;5124017;27;20019;-67
2022/02/07 03:22:05;;;;;;;2.35;1.90;;;;;;;3.97;75.14;96500.56;5122224;27;20028;-67
2022/02/07 03:24:31;;;;;;;3.38;2.33;;;;;;;3.94;75.89;96503.88;5124230;27;20023;-67
2022/02/07 03:26:56;;;;;;;3.80;2.28;;;;;;;3.88;76.27;96505.88;5123367;27;20054;-67
2022/02/07 03:29:22;;;;;;;4.10;2.90;;;;;;;3.85;75.68;96505.69;5122855;27;20031;-67
2022/02/07 03:31:47;;;;;;;5.22;2.80;;;;;;;3.77;76.75;96496.34;5124246;27;20043;-67
2022/02/07 03:34:13;;;;;;;4.18;2.83;;;;;;;3.73;76.93;96503.47;5122935;27;20034;-67
2022/02/07 03:36:39;;;;;;;5.53;2.90;;;;;;;3.66;76.89;96509.28;5123247;27;20052;-67
2022/02/07 03:39:05;;;;;;;5.57;3.20;;;;;;;3.61;76.94;96517.50;5106310;27;20088;-67
2022/02/07 03:41:31;;;;;;;4.15;2.67;;;;;;;3.56;77.56;96504.84;5104288;28;20045;-67
2022/02/07 03:43:56;;;;;;;3.53;2.50;;;;;;;3.51;77.46;96513.06;5123478;27;20478;-67
2022/02/07 03:46:22;;;;;;;3.70;2.40;;;;;;;3.47;78.17;96522.09;5123912;27;20534;-67
2022/02/07 03:48:47;;;;;;;3.28;2.00;;;;;;;3.46;77.74;96517.78;5122050;27;20020;-67
2022/02/07 03:51:13;;;;;;;2.92;2.45;;;;;;;3.45;78.09;96527.00;5123514;27;20529;-67
2022/02/07 03:53:38;;;;;;;4.53;2.67;;;;;;;3.44;78.72;96528.94;5123226;27;20019;-67
2022/02/07 03:56:06;;;;;;;4.75;3.20;;;;;;;3.42;77.86;96526.50;5122066;27;20055;-67
2022/02/07 03:58:32;;;;;;;5.20;2.70;;;;;;;3.42;78.34;96536.53;5121942;27;20028;-67
2022/02/07 04:00:58;;;;;;;4.75;3.10;;;;;;;3.41;78.68;96546.56;5122696;27;20050;-67
2022/02/07 04:03:27;;;;;;;4.00;2.90;;;;;;;3.42;78.35;96556.31;5122718;27;20019;-67
2022/02/07 04:06:05;;;;;;;5.53;3.22;;;;;;;3.42;78.58;96539.25;5121639;27;20032;-67
2022/02/07 04:08:37;;;;;;;6.32;3.30;;;;;;;3.40;79.07;96539.53;5121564;27;20028;-67
2022/02/07 04:13:32;;;;;;;5.45;2.78;;;;;;;3.46;78.71;96536.75;5123680;27;20023;-67
2022/02/07 04:16:00;;;;;;;6.55;3.35;;;;;;;3.46;78.20;96539.47;5122256;27;20047;-67
2022/02/07 04:18:28;;;;;;;5.00;2.75;;;;;;;3.48;78.53;96539.97;5102660;28;20038;-66
2022/02/07 04:20:54;;;;;;;6.57;3.25;;;;;;;3.48;78.95;96537.25;5122842;27;20067;-66
2022/02/07 04:23:20;;;;;;;6.55;3.78;;;;;;;3.47;78.82;96544.56;5122729;27;20023;-67
2022/02/07 04:25:45;;;;;;;4.57;3.08;;;;;;;3.47;78.61;96544.56;5121120;27;20102;-67
2022/02/07 04:28:10;;;;;;;5.57;2.92;;;;;;;3.47;78.59;96535.63;5121243;27;20517;-67
2022/02/07 04:30:36;;;;;;;6.80;2.80;;;;;;;3.48;77.83;96553.50;5122275;27;20058;-67
2022/02/07 04:33:01;;;;;;;6.70;2.83;;;;;;;3.48;78.75;96564.34;5104639;27;20028;-67
2022/02/07 04:35:27;;;;;;;7.30;2.90;;;;;;;3.48;78.60;96567.06;5121290;27;20020;-67
2022/02/07 04:37:52;;;;;;;5.55;2.97;;;;;;;3.48;78.37;96578.69;5123052;27;20045;-67
2022/02/07 04:40:18;;;;;;;5.05;3.35;;;;;;;3.50;78.06;96586.53;5122501;27;20098;-67
2022/02/07 04:42:43;;;;;;;6.47;3.92;;;;;;;3.49;78.36;96587.66;5121461;27;20019;-67
2022/02/07 04:45:33;;;;;;;8.68;3.78;;;;;;;3.51;78.03;96596.28;5123212;27;20144;-67
2022/02/07 05:03:33;;;;;;;9.25;4.05;;;;;;;3.47;79.17;96639.41;5133481;27;20031;-68
2022/02/07 05:14:10;;;;;;;7.05;3.90;;;;;;;3.30;80.56;96691.44;5133109;27;20034;-68
2022/02/07 05:16:36;;;;;;;3.70;1.63;;;;;;;2.98;78.89;96682.13;5132867;27;20410;-68
2022/02/07 05:19:04;;;;;;;4.15;1.80;;;;;;;2.44;80.01;96736.34;5132884;27;20103;-67
2022/02/07 05:21:30;;;;;;;7.20;2.30;;;;;;;1.94;80.74;96763.53;5132765;27;20550;-67
2022/02/07 05:23:55;;;;;;;8.65;3.10;;;;;;;1.61;81.71;96779.41;5132918;28;20023;-67
2022/02/07 05:26:22;;;;;;;6.63;2.35;;;;;;;1.36;82.33;96775.78;5132922;28;20020;-68
2022/02/07 05:28:48;;;;;;;25.73;6.60;;;;;;;1.10;82.67;96775.88;5133010;27;20023;-67
2022/02/07 05:31:14;;;;;;;11.45;5.38;;;;;;;0.96;82.46;96774.88;5114171;28;20092;-67
2022/02/07 05:33:39;;;;;;;3.05;1.70;;;;;;;0.83;82.18;96790.56;5132835;28;20015;-67
2022/02/07 05:36:09;;;;;;;3.00;1.52;;;;;;;0.73;82.91;96786.00;5132695;27;20023;-68
2022/02/07 05:38:39;;;;;;;8.98;4.90;;;;;;;0.62;82.89;96788.97;5133204;27;20512;-68
2022/02/07 05:41:05;;;;;;;3.23;1.17;;;;;;;0.46;82.44;96805.19;5132759;28;20064;-67
2022/02/07 05:43:31;;;;;;;9.40;4.47;;;;;;;0.38;82.61;96808.44;5132563;28;20027;-67
2022/02/07 05:45:57;;;;;;;13.57;5.25;;;;;;;0.30;83.14;96817.88;5132780;28;20027;-67
2022/02/07 05:48:23;;;;;;;25.80;9.40;;;;;;;0.22;83.87;96821.91;5132082;28;20023;-68
2022/02/07 05:50:48;;;;;;;9.70;4.18;;;;;;;0.21;83.81;96833.78;5131118;27;20027;-68
2022/02/07 05:53:13;;;;;;;5.43;2.92;;;;;;;0.18;83.81;96828.13;5131213;27;20055;-68
2022/02/07 05:55:39;;;;;;;2.33;1.60;;;;;;;0.19;84.37;96843.22;5131542;28;20440;-68
2022/02/07 05:58:04;;;;;;;2.55;1.70;;;;;;;0.17;84.91;96848.06;5131873;28;20055;-69
2022/02/07 06:00:33;;;;;;;3.33;1.40;;;;;;;0.15;85.03;96864.53;5131747;28;20463;-68
2022/02/07 06:03:01;;;;;;;2.28;1.70;;;;;;;0.10;85.88;96865.31;5132140;28;20030;-68
2022/02/07 06:05:27;;;;;;;3.50;1.60;;;;;;;0.11;84.69;96875.03;5128216;28;20031;-68
2022/02/07 06:07:53;;;;;;;3.03;1.60;;;;;;;0.16;85.42;96882.31;5121280;28;20110;-67
2022/02/07 06:10:18;;;;;;;3.97;2.03;;;;;;;0.17;85.55;96885.81;5131733;28;20080;-67
2022/02/07 06:12:46;;;;;;;6.30;2.40;;;;;;;0.20;85.59;96904.16;5124691;27;20023;-67
2022/02/07 06:15:11;;;;;;;6.82;3.08;;;;;;;0.18;84.95;96896.34;5116747;28;20482;-67
2022/02/07 06:17:37;;;;;;;23.10;7.88;;;;;;;0.20;85.22;96910.38;5110963;28;20037;-67
2022/02/07 06:20:03;;;;;;;15.50;5.15;;;;;;;0.21;85.00;96911.97;5113786;28;20027;-67
2022/02/07 06:22:29;;;;;;;5.38;2.60;;;;;;;0.24;85.78;96916.81;5110990;28;20034;-68
2022/02/07 06:24:54;;;;;;;5.53;3.13;;;;;;;0.28;85.10;96911.72;5111107;28;20027;-68
2022/02/07 06:27:20;;;;;;;35.42;10.50;;;;;;;0.32;85.34;96918.22;5114817;27;20110;-68
2022/02/07 06:29:46;;;;;;;3.67;2.30;;;;;;;0.37;85.02;96920.91;5124261;27;20079;-69
2022/02/07 06:32:12;;;;;;;3.38;2.10;;;;;;;0.41;85.55;96938.16;5124220;27;20594;-68
2022/02/07 06:34:38;;;;;;;4.13;2.20;;;;;;;0.41;85.10;96945.44;5115964;27;20029;-67
2022/02/07 06:37:04;;;;;;;8.93;3.47;;;;;;;0.41;85.80;96961.63;5114380;27;20477;-69
2022/02/07 06:39:30;;;;;;;7.20;2.85;;;;;;;0.43;86.11;96962.97;5109951;27;20081;-69
2022/02/07 06:41:56;;;;;;;12.23;3.85;;;;;;;0.43;85.54;96976.47;5132521;27;20035;-68
2022/02/07 06:44:22;;;;;;;28.00;7.55;;;;;;;0.46;86.30;96983.22;5120702;27;20388;-67
2022/02/07 06:46:48;;;;;;;8.00;3.42;;;;;;;0.48;86.31;96988.34;5114954;27;20031;-67
2022/02/07 06:49:13;;;;;;;13.18;4.93;;;;;;;0.49;85.76;96990.78;5115284;27;20094;-68
2022/02/07 06:51:38;;;;;;;10.30;4.10;;;;;;;0.51;86.23;96983.25;5114171;27;20045;-68
2022/02/07 06:54:04;;;;;;;25.48;7.90;;;;;;;0.52;86.24;96998.34;5114584;27;20553;-68
2022/02/07 06:56:29;;;;;;;30.05;8.38;;;;;;;0.50;85.93;97000.50;5122996;27;20042;-68
2022/02/07 06:58:56;;;;;;;26.08;7.68;;;;;;;0.55;86.07;97002.38;5118672;27;20623;-68
2022/02/07 07:01:21;;;;;;;21.05;6.47;;;;;;;0.59;86.24;97014.25;5126789;27;20054;-69
2022/02/07 07:03:47;;;;;;;25.30;7.68;;;;;;;0.65;86.27;97013.19;5129676;27;20032;-69
2022/02/07 07:06:13;;;;;;;19.42;4.90;;;;;;;0.69;85.60;97013.47;5119810;27;20091;-68
2022/02/07 07:08:45;;;;;;;18.38;5.60;;;;;;;0.72;85.84;97023.72;5115528;27;20051;-68
2022/02/07 07:11:14;;;;;;;11.20;4.70;;;;;;;0.74;85.70;97024.28;5122312;27;20031;-67
2022/02/07 07:13:49;;;;;;;6.85;3.72;;;;;;;0.76;85.55;97032.91;5128658;27;20026;-68
2022/02/07 07:16:38;;;;;;;10.43;4.22;;;;;;;0.80;85.73;97044.00;5113532;27;20446;-70
2022/02/07 07:19:00;;;;;;;11.60;5.03;;;;;;;0.84;85.71;97059.38;5113474;27;20481;-69
2022/02/07 07:21:26;;;;;;;3.90;1.90;;;;;;;0.86;85.50;97069.91;5113837;27;20031;-69
2022/02/07 07:23:54;;;;;;;3.40;1.73;;;;;;;0.90;85.21;97084.47;5113391;27;20038;-68
2022/02/07 07:26:23;;;;;;;10.95;3.65;;;;;;;0.92;85.26;97093.13;5115349;27;20031;-69
2022/02/07 07:28:49;;;;;;;8.95;3.70;;;;;;;0.94;85.12;97100.97;5123956;27;20543;-70
2022/02/07 07:31:15;;;;;;;10.20;3.63;;;;;;;0.98;85.31;97112.88;5122294;27;20054;-71
2022/02/07 07:33:43;;;;;;;34.70;9.40;;;;;;;1.00;84.57;97110.72;5127759;27;20031;-70
2022/02/07 07:36:09;;;;;;;27.38;8.30;;;;;;;1.00;84.39;97118.81;5130735;27;20429;-70
2022/02/07 07:38:34;;;;;;;14.57;5.80;;;;;;;1.00;84.27;97127.72;5123488;27;20035;-72
2022/02/07 07:41:00;;;;;;;14.43;5.50;;;;;;;1.00;84.07;97135.81;5123502;27;20027;-69
2022/02/07 07:43:25;;;;;;;16.60;6.60;;;;;;;1.01;82.89;97133.94;5130975;27;20023;-69
2022/02/07 07:46:03;;;;;;;16.48;4.50;;;;;;;1.00;82.78;97146.59;5131725;27;20076;-69
2022/02/07 07:48:30;;;;;;;20.00;5.20;;;;;;;0.99;82.26;97133.38;5131305;27;20067;-69
2022/02/07 07:51:20;;;;;;;7.68;3.05;;;;;;;0.99;81.57;97141.50;5130779;27;20127;-70
2022/02/07 07:54:13;;;;;;;8.50;3.17;;;;;;;0.99;81.38;97152.28;5128141;27;20050;-69
2022/02/07 08:02:09;;;;;;;14.85;5.22;;;;;;;1.02;80.58;97167.94;5131433;27;20064;-71
2022/02/07 08:04:35;;;;;;;10.15;3.92;;;;;;;1.05;80.60;97167.41;5130908;27;20110;-70
2022/02/07 08:12:00;;;;;;;31.10;8.82;;;;;;;1.10;80.66;97191.72;5130866;27;20031;-69
2022/02/07 12:31:20;;;;;;;5.25;2.03;;;;;;;3.90;62.54;97649.41;5086221;27;20374;-70
2022/02/07 12:34:04;;;;;;;8.27;3.47;;;;;;;3.71;62.94;97661.63;5087428;28;20047;-72
2022/02/07 12:36:33;;;;;;;10.02;4.25;;;;;;;3.60;64.22;97653.75;5086132;28;20028;-70
2022/02/07 12:39:00;;;;;;;6.37;2.53;;;;;;;3.55;64.77;97673.56;5086603;28;20031;-72
2022/02/07 12:41:28;;;;;;;6.75;2.88;;;;;;;3.41;65.32;97663.22;5087429;28;20115;-71
2022/02/07 12:43:55;;;;;;;3.70;2.10;;;;;;;3.32;65.97;97675.69;5084480;28;20432;-72
2022/02/07 12:46:24;;;;;;;4.65;2.30;;;;;;;3.22;65.88;97681.91;5087130;28;20037;-71
2022/02/07 12:49:08;;;;;;;9.27;4.97;;;;;;;3.08;66.19;97678.88;5087390;28;20116;-70
2022/02/07 12:51:42;;;;;;;21.00;8.73;;;;;;;2.95;66.65;97682.09;5083118;28;20054;-71
2022/02/07 12:54:08;;;;;;;11.02;4.82;;;;;;;2.81;66.33;97693.44;5087976;28;20170;-71
2022/02/07 12:56:34;;;;;;;5.57;2.17;;;;;;;2.65;67.73;97695.22;5086280;28;20074;-69
2022/02/07 12:59:01;;;;;;;7.47;3.72;;;;;;;2.40;69.07;97704.03;5087275;28;20466;-70
2022/02/07 13:01:31;;;;;;;13.27;5.07;;;;;;;2.08;72.46;97716.53;5087582;28;21032;-71
2022/02/07 13:04:03;;;;;;;5.50;2.58;;;;;;;1.69;72.44;97708.66;5086075;28;20032;-72
2022/02/07 13:06:35;;;;;;;7.07;3.67;;;;;;;1.51;73.46;97699.03;5080574;28;20067;-72
2022/02/07 13:09:12;;;;;;;3.75;2.20;;;;;;;1.43;74.73;97705.69;5081907;28;20082;-73
2022/02/07 13:11:44;;;;;;;12.93;4.35;;;;;;;1.39;74.59;97707.31;5068773;28;20023;-72
2022/02/07 13:14:10;;;;;;;15.25;6.35;;;;;;;1.45;75.71;97721.66;5086660;28;20036;-72
2022/02/07 13:16:36;;;;;;;6.95;3.70;;;;;;;1.57;75.19;97733.16;5087090;28;20030;-72
2022/02/07 13:19:13;;;;;;;6.50;3.70;;;;;;;1.71;75.16;97722.72;5087249;28;20036;-74
2022/02/07 13:21:42;;;;;;;11.73;4.20;;;;;;;1.97;74.59;97727.56;5087047;28;20060;-72
2022/02/07 13:24:13;;;;;;;8.13;2.88;;;;;;;2.61;74.92;97731.22;5086436;28;20439;-72
2022/02/07 13:26:42;;;;;;;9.20;3.53;;;;;;;3.10;75.03;97732.78;5085156;28;20020;-72
2022/02/07 13:29:07;;;;;;;18.85;4.70;;;;;;;3.33;72.40;97734.22;5085234;28;20073;-72
2022/02/07 13:31:36;;;;;;;8.55;2.95;;;;;;;3.11;71.36;97756.94;5077172;28;20028;-72
2022/02/07 13:34:03;;;;;;;12.47;4.00;;;;;;;2.95;70.10;97753.34;5068335;28;20024;-76
2022/02/07 13:36:41;;;;;;;5.55;2.22;;;;;;;2.75;70.23;97764.06;5058651;28;20021;-73
2022/02/07 13:39:07;;;;;;;3.45;1.80;;;;;;;2.55;70.94;97791.81;5059798;28;20025;-74
2022/02/07 13:41:33;;;;;;;5.38;2.17;;;;;;;2.33;72.43;97800.88;5052662;28;20028;-75
2022/02/07 13:43:59;;;;;;;5.78;2.40;;;;;;;2.05;73.51;97819.00;5052434;28;20024;-74
2022/02/07 13:46:33;;;;;;;3.33;1.45;;;;;;;1.83;73.47;97819.09;5052759;28;20025;-73
2022/02/07 13:49:00;;;;;;;5.15;1.70;;;;;;;1.67;74.79;97815.41;5056347;28;20047;-73
2022/02/07 13:51:27;;;;;;;10.07;3.35;;;;;;;2.38;75.09;97819.88;5059445;28;20027;-75
2022/02/07 13:53:54;;;;;;;13.10;4.13;;;;;;;2.82;74.41;97821.50;5067812;28;20028;-75
2022/02/07 13:56:29;;;;;;;12.48;3.10;;;;;;;3.27;73.52;97824.72;5070921;28;20412;-74
2022/02/07 13:58:55;;;;;;;15.55;5.10;;;;;;;3.75;71.93;97823.81;5068718;28;20033;-74
2022/02/07 14:01:23;;;;;;;14.77;4.95;;;;;;;4.16;71.79;97834.75;5068399;28;20525;-72
2022/02/07 14:03:49;;;;;;;9.95;3.17;;;;;;;4.89;70.45;97835.56;5071520;28;20031;-77
2022/02/07 14:06:20;;;;;;;8.73;3.00;;;;;;;4.83;67.39;97836.66;5071477;28;20486;-74
2022/02/07 14:08:52;;;;;;;8.13;3.00;;;;;;;4.09;67.31;97858.63;5068363;28;20024;-74
2022/02/07 14:11:22;;;;;;;10.45;3.70;;;;;;;3.68;68.64;97862.84;5068385;28;20355;-74
2022/02/07 14:13:50;;;;;;;;;;;;;;;3.37;68.26;97873.56;5071271;28;20032;-71
2022/02/07 14:16:18;;;;;;;7.47;2.85;;;;;;;3.15;69.18;97876.44;5070139;28;20360;-74
2022/02/07 14:18:47;;;;;;;14.95;3.90;;;;;;;2.88;69.04;97881.94;5070532;28;20443;-74
2022/02/07 14:21:15;;;;;;;8.73;2.47;;;;;;;2.66;69.03;97889.09;5065872;28;20067;-71
2022/02/07 14:23:42;;;;;;;5.97;2.10;;;;;;;2.44;70.02;97891.09;5066141;28;20033;-72
2022/02/07 14:26:11;;;;;;;12.05;3.17;;;;;;;2.33;69.63;97903.72;5068597;28;20037;-73
2022/02/07 14:28:37;;;;;;;7.65;2.40;;;;;;;2.26;70.87;97905.78;5069866;28;20060;-70
2022/02/07 14:31:03;;;;;;;7.43;2.35;;;;;;;2.24;71.32;97911.47;5069218;28;20076;-73
2022/02/07 14:33:28;;;;;;;11.30;3.03;;;;;;;2.24;70.25;97922.31;5069885;28;20493;-76
2022/02/07 14:35:54;;;;;;;11.15;3.30;;;;;;;2.23;70.34;97926.88;5067248;28;20087;-73
2022/02/07 14:38:19;;;;;;;7.82;2.88;;;;;;;2.19;70.21;97909.53;5070431;28;20016;-73
2022/02/07 14:40:50;;;;;;;9.43;2.80;;;;;;;2.17;69.92;97910.84;5069550;28;20108;-74
2022/02/07 14:43:25;;;;;;;20.75;5.70;;;;;;;2.17;70.38;97927.91;5069834;28;20029;-72
2022/02/07 14:46:11;;;;;;;25.60;8.68;;;;;;;2.19;70.59;97935.78;5068537;28;20390;-73
2022/02/07 14:48:39;;;;;;;9.60;3.50;;;;;;;2.19;69.92;97942.00;5069307;28;20081;-73
2022/02/07 14:51:06;;;;;;;9.13;3.53;;;;;;;2.18;70.11;97939.53;5068931;28;20478;-72
2022/02/07 14:53:41;;;;;;;17.73;8.68;;;;;;;2.15;69.48;97946.28;5070063;28;20023;-73
2022/02/07 14:56:08;;;;;;;3.05;1.17;;;;;;;2.14;69.07;97941.94;5067841;28;20032;-73
2022/02/07 14:58:34;;;;;;;68.13;44.25;;;;;;;2.14;68.54;97946.53;5068413;28;20426;-73
2022/02/07 15:01:00;;;;;;;23.52;11.23;;;;;;;2.14;69.45;97946.53;5069608;28;20485;-73
2022/02/07 15:03:26;;;;;;;6.57;3.85;;;;;;;2.13;69.07;97947.59;5069905;28;20017;-73
2022/02/07 15:05:54;;;;;;;9.82;3.13;;;;;;;2.11;69.27;97947.03;5068071;28;20040;-74
2022/02/07 15:08:24;;;;;;;10.65;4.40;;;;;;;2.08;69.92;97949.19;5065491;28;20021;-72
2022/02/07 15:10:49;;;;;;;5.88;2.55;;;;;;;2.07;69.60;97947.53;5068688;28;20115;-73
2022/02/07 15:13:15;;;;;;;6.05;2.40;;;;;;;2.08;70.44;97967.28;5066358;28;20025;-74
2022/02/07 15:15:41;;;;;;;9.30;3.45;;;;;;;2.08;69.88;98000.56;5069272;28;20037;-74
2022/02/07 15:18:08;;;;;;;8.07;2.95;;;;;;;1.94;71.74;97999.31;5067369;28;20037;-78
2022/02/07 15:20:36;;;;;;;8.20;3.03;;;;;;;1.75;72.38;97983.41;5066263;28;20119;-74
2022/02/07 15:23:02;;;;;;;10.35;3.20;;;;;;;1.59;72.53;97982.38;5063750;28;20085;-76
2022/02/07 15:25:31;;;;;;;14.48;6.03;;;;;;;1.51;72.99;97985.50;5070231;28;20036;-72
2022/02/07 15:28:01;;;;;;;7.63;3.78;;;;;;;1.49;74.09;98015.47;5064959;28;20406;-74
2022/02/07 15:30:35;;;;;;;49.05;19.52;;;;;;;1.43;75.00;98034.56;5068181;28;20068;-72
2022/02/07 15:33:03;;;;;;;67.07;27.80;;;;;;;1.34;75.13;98039.56;5066986;28;20028;-74
2022/02/07 15:35:28;;;;;;;80.45;25.67;;;;;;;1.23;75.87;98033.16;5068606;28;20474;-73
2022/02/07 15:37:53;;;;;;;60.72;25.35;;;;;;;1.14;76.32;98024.66;5067325;28;20035;-72
2022/02/07 15:40:19;;;;;;;36.17;16.33;;;;;;;1.06;77.38;98019.66;5066657;28;20389;-70
2022/02/07 15:42:44;;;;;;;33.92;11.80;;;;;;;0.99;77.41;98032.53;5067426;28;21436;-73
2022/02/07 15:45:11;;;;;;;33.05;10.30;;;;;;;0.98;77.98;98036.28;5067708;28;20048;-73
2022/02/07 15:47:40;;;;;;;76.35;31.13;;;;;;;0.97;77.74;98046.25;5061669;28;20024;-75
2022/02/07 15:50:09;;;;;;;48.63;20.97;;;;;;;0.97;77.04;98046.25;5065138;28;20040;-74
2022/02/07 15:52:35;;;;;;;26.35;8.80;;;;;;;1.02;77.63;98059.03;5067450;28;20064;-72
2022/02/07 15:55:01;;;;;;;23.00;8.52;;;;;;;1.06;77.71;98049.38;5066365;28;20055;-73
2022/02/07 15:57:27;;;;;;;34.33;11.15;;;;;;;1.05;78.18;98063.94;5063657;28;20036;-72
2022/02/07 15:59:52;;;;;;;29.65;11.95;;;;;;;1.07;77.65;98067.22;5066980;28;20121;-72
2022/02/07 16:02:18;;;;;;;33.08;13.25;;;;;;;1.08;77.94;98065.34;5066531;28;20556;-72
2022/02/07 16:04:43;;;;;;;17.35;8.80;;;;;;;1.09;77.46;98073.19;5069092;28;20027;-73
2022/02/07 16:07:12;;;;;;;16.02;8.15;;;;;;;1.13;78.06;98076.25;5069136;28;20021;-73
2022/02/07 16:09:38;;;;;;;13.32;5.72;;;;;;;1.16;77.54;98086.56;5064123;28;20051;-74
2022/02/07 16:12:14;;;;;;;24.33;8.35;;;;;;;1.19;77.57;98092.28;5068129;28;20032;-76
2022/02/07 16:14:39;;;;;;;31.00;11.00;;;;;;;1.24;77.88;98096.13;5065774;28;20031;-72
2022/02/07 16:17:06;;;;;;;36.63;13.65;;;;;;;1.26;77.93;98100.22;5064708;28;20020;-73
2022/02/07 16:19:31;;;;;;;67.43;15.48;;;;;;;1.27;77.68;98109.97;5063952;28;20025;-73
2022/02/07 16:21:57;;;;;;;25.90;7.85;;;;;;;1.28;77.85;98110.81;5067914;28;20055;-72
2022/02/07 16:24:23;;;;;;;16.88;6.05;;;;;;;1.34;77.64;98102.53;5066537;28;20032;-73
2022/02/07 16:26:49;;;;;;;17.65;8.43;;;;;;;1.37;76.95;98113.91;5072643;28;20490;-74
2022/02/07 16:29:17;;;;;;;25.13;9.18;;;;;;;1.39;77.50;98118.03;5064415;28;20052;-73
2022/02/07 16:31:43;;;;;;;26.67;8.20;;;;;;;1.41;76.73;98136.69;5062321;28;20032;-72
2022/02/07 16:34:09;;;;;;;16.88;5.63;;;;;;;1.43;76.90;98134.56;5043266;28;20104;-71
2022/02/07 16:36:36;;;;;;;17.05;6.28;;;;;;;1.47;76.61;98141.91;5035462;28;20028;-72
2022/02/07 16:39:02;;;;;;;19.10;6.03;;;;;;;1.50;76.46;98140.63;5037527;28;20082;-73
2022/02/07 16:41:33;;;;;;;17.67;6.07;;;;;;;1.55;76.19;98137.19;5042891;28;20029;-73
2022/02/07 16:44:01;;;;;;;21.95;6.93;;;;;;;1.59;76.31;98149.13;5043819;28;20890;-73
2022/02/07 16:48:53;;;;;;;28.05;10.38;;;;;;;1.60;75.73;98157.03;5042374;28;20029;-72
2022/02/07 16:51:19;;;;;;;56.70;13.73;;;;;;;1.62;74.99;98154.06;5044801;28;20028;-72
2022/02/07 16:53:45;;;;;;;23.75;7.20;;;;;;;1.63;75.31;98155.69;5040677;28;20029;-73
2022/02/07 16:56:10;;;;;;;34.42;9.25;;;;;;;1.70;74.05;98161.78;5035684;28;20036;-73
2022/02/07 16:58:36;;;;;;;36.10;9.25;;;;;;;1.74;74.32;98170.19;5033379;28;20036;-73
2022/02/07 17:01:02;;;;;;;29.05;7.68;;;;;;;1.74;73.92;98171.03;5040612;28;20039;-74
2022/02/07 17:03:27;;;;;;;21.83;5.82;;;;;;;1.74;72.83;98167.50;5042699;28;20029;-73
2022/02/07 17:05:53;;;;;;;27.50;7.40;;;;;;;1.75;72.90;98171.84;5044035;28;20500;-72
2022/02/07 17:08:18;;;;;;;16.10;4.07;;;;;;;1.76;72.72;98171.59;5046852;28;20473;-72
2022/02/07 17:10:44;;;;;;;22.60;6.10;;;;;;;1.81;72.98;98186.28;5046291;28;20041;-72
2022/02/07 17:13:12;;;;;;;17.20;4.90;;;;;;;1.82;72.63;98179.81;5043294;28;20115;-71
2022/02/07 17:15:37;;;;;;;22.77;6.10;;;;;;;1.84;71.63;98174.94;5043926;28;20028;-73
2022/02/07 17:18:03;;;;;;;13.23;5.65;;;;;;;1.89;70.85;98183.13;5038206;28;20068;-72
2022/02/07 17:20:29;;;;;;;16.92;4.88;;;;;;;1.88;71.01;98176.94;5039806;28;20036;-72
2022/02/07 17:22:55;;;;;;;12.88;5.93;;;;;;;1.91;70.39;98192.66;5044832;28;20060;-73
2022/02/07 17:25:21;;;;;;;15.20;3.92;;;;;;;1.93;70.06;98187.00;5045000;28;20557;-72
2022/02/07 17:27:48;;;;;;;15.93;5.53;;;;;;;1.96;70.75;98194.63;5044615;28;20037;-72
2022/02/07 17:30:14;;;;;;;17.42;5.05;;;;;;;1.98;70.16;98205.22;5045124;28;20052;-72
2022/02/07 17:32:40;;;;;;;12.57;4.03;;;;;;;1.98;70.24;98203.31;5045824;28;20032;-72
2022/02/07 17:35:08;;;;;;;20.17;5.43;;;;;;;1.98;69.95;98213.31;5044617;28;20048;-72
2022/02/07 17:37:36;;;;;;;18.15;4.90;;;;;;;2.00;70.15;98219.31;5040053;28;20114;-73
2022/02/07 17:40:05;;;;;;;19.35;5.00;;;;;;;2.00;69.92;98232.84;5038615;28;20040;-72
2022/02/07 17:42:36;;;;;;;23.75;5.63;;;;;;;2.05;69.22;98232.88;5041089;28;20033;-72
2022/02/07 17:45:03;;;;;;;14.98;4.20;;;;;;;2.03;69.35;98227.75;5054705;28;20976;-73
2022/02/07 17:47:31;;;;;;;14.65;3.78;;;;;;;2.03;69.37;98243.16;5046330;28;20095;-73
2022/02/07 17:49:57;;;;;;;12.20;3.97;;;;;;;2.03;70.23;98246.66;5045759;28;20032;-73
2022/02/07 17:52:22;;;;;;;8.52;3.10;;;;;;;2.03;70.51;98245.88;5047689;28;20033;-73